Share

Fairfax, MN

Redwood Falls Municipal (KRWF) Elev 1024 ft | 44.55 °N, 95.08 °W | Change Station

Current weather conditions updated 44 minutes ago

Clear
Clear
45 °F
Feels Like 44 °F
N
4
Wind Variable Wind from WNW
Sunrise 6:26 AM
Sunset 8:10 PM
Moon Waning Gibbous

Today is forecast to be nearly the same temperature as yesterday. Showers late tonight.

Pressure 30.03 in
Visibility 4.0 miles
Clouds Clear
Windchill 44 °F
Dew Point 43 °F
Humidity 93%
Rainfall 0.00 in
Snow Depth Not available.
UV 0 out of 16
Pollen 10.30 out of 12
Air Quality Not available.
Flu Activity Sporadic
METAR KRWF 201153Z AUTO 30003KT 4SM BR CLR 07/06 A3002 RMK AO2 SLP169 T00720061 10122 20061 51004

More Conditions Fewer Conditions

Pressure 30.03 in
Visibility 4.0 miles
Clouds Clear
Windchill 44 °F
Dew Point 43 °F
Humidity 93%
Rainfall 0.00 in
Snow Depth Not available.
UV 0 out of 16
Pollen 10.30 out of 12
Air Quality Not available.
Flu Activity Sporadic
METAR KRWF 201153Z AUTO 30003KT 4SM BR CLR 07/06 A3002 RMK AO2 SLP169 T00720061 10122 20061 51004

More Conditions Fewer Conditions

10-Day Weather Forecast

Almanac

Astronomy

Apr. 20, 2014 Rise Set
Actual Time 6:26 AM CDT 8:10 PM CDT
Civil Twilight 5:55 AM CDT 8:40 PM CDT
Nautical Twilight 5:18 AM CDT 9:18 PM CDT
Astronomical Twilight 4:37 AM CDT 9:59 PM CDT
Moon 12:55 AM CDT 10:43 AM CDT
Length of Visible Light 14h 45m
Length of Day
13h 43m
Tomorrow will be 2m 53s longer.
Waning Gibbous, 70% of the Moon is Illuminated
Today
Waning Gibbous
Apr 22
Last Quarter
Apr 29
New
May 6
First Quarter
May 14
Full

Today's Extremes

State Highs State Lows

Community

  • EARLY FOGGY MORNING
    EARLY FOGGY MORNING
  • Easter Greetings
    Easter Greetings
  • Sunny day at the coast-Cape Arago Lighthouse
    Sunny day at the coast-Cape Arago Lighthouse
  • Cherry Blossoms
    Cherry Blossoms
  • White-Crowned Sparrow
    White-Crowned Sparrow

WunderPhotos

Upload Photos

1,703,184 photos uploaded!

Nearby

Snow Depth

Station Depth Elevation
No new snow has been reported.

Coastal Water Temperatures

Place Temperature
No Stations Reporting

Earthquake Activity

City Distance Mag. Time & Date
No recent earthquake activity has been reported nearby.
Minimum magnitude displayed is 2.5.

Nearby Weather Stations

Station Location Temp. Windchill Dew Point Humidity Wind Precip. Elev Updated Type
Sleepy Eye Airport, Sleepy Eye, MN 48.7 °F 49 °F 46 °F 90% North  at  0.0 mph 0.00 in / hr 994 ft 7:37 AM CDT Rapid Fire
Martin Luther College, New Ulm, MN 51.7 °F - 47 °F 79% North  at  0.2 mph - / hr 980 ft 7:35 AM CDT Normal

Show More Stations Show Fewer Stations

What do you think?

We're not finished. Please let us know what you like, what you don't like, and what you are still missing.